Time;durP1;ratioP1;P1;durP2;ratioP2;P2;SDS_P1;SDS_P2;PMS_P1;PMS_P2;Temp;Humidity;BMP_temperature;BMP_pressure;BME280_temperature;BME280_humidity;BME280_pressure;Samples;Min_cycle;Max_cycle;Signal;HPM_P1;HPM_P2
2021/12/30 00:02:19;;;;;;;45.13;20.35;;;10.20;99.90;;;;;;6162616;23;20044;-90
2021/12/30 00:04:45;;;;;;;47.83;21.45;;;10.20;99.90;;;;;;6163511;23;20009;-91
2021/12/30 00:07:11;;;;;;;45.33;21.98;;;10.20;99.90;;;;;;6159993;23;20016;-91
2021/12/30 00:09:39;;;;;;;52.42;22.17;;;10.20;99.90;;;;;;6139634;23;20108;-91
2021/12/30 00:12:09;;;;;;;52.58;22.85;;;10.10;99.90;;;;;;6163904;23;20012;-90
2021/12/30 00:14:40;;;;;;;47.95;24.52;;;10.10;99.90;;;;;;6188421;23;20504;-91
2021/12/30 00:17:11;;;;;;;45.72;21.35;;;10.20;99.90;;;;;;6189617;23;20792;-91
2021/12/30 00:19:37;;;;;;;48.17;22.10;;;10.20;99.90;;;;;;6162248;23;20011;-91
2021/12/30 00:22:04;;;;;;;44.80;21.40;;;10.20;99.90;;;;;;6187128;23;20028;-91
2021/12/30 00:24:30;;;;;;;42.63;19.55;;;10.20;99.90;;;;;;6161159;23;20009;-91
2021/12/30 00:26:57;;;;;;;48.47;22.70;;;10.30;99.90;;;;;;6163541;23;20041;-91
2021/12/30 00:29:26;;;;;;;44.50;19.58;;;10.30;99.90;;;;;;6190619;23;20330;-91
2021/12/30 00:31:54;;;;;;;45.90;20.55;;;10.40;99.90;;;;;;6141361;23;20437;-90
2021/12/30 00:34:24;;;;;;;45.30;20.30;;;10.40;99.90;;;;;;6166775;23;20005;-90
2021/12/30 00:37:00;;;;;;;48.83;19.90;;;10.50;99.90;;;;;;6188415;23;20005;-92
2021/12/30 00:39:28;;;;;;;44.92;20.20;;;10.50;99.90;;;;;;6189020;23;20001;-91
2021/12/30 00:41:56;;;;;;;45.53;21.48;;;10.50;99.90;;;;;;6163710;23;20473;-90
2021/12/30 00:44:25;;;;;;;50.30;21.00;;;10.60;99.90;;;;;;6193079;23;20453;-93
2021/12/30 00:46:51;;;;;;;46.97;20.90;;;10.60;99.90;;;;;;6162093;23;20072;-91
2021/12/30 00:49:18;;;;;;;38.40;17.80;;;10.60;99.90;;;;;;6166086;23;20001;-93
2021/12/30 00:51:47;;;;;;;41.00;17.00;;;10.60;99.90;;;;;;6166086;23;20012;-92
2021/12/30 00:54:13;;;;;;;31.85;15.05;;;10.70;99.90;;;;;;6162540;23;20008;-91
2021/12/30 00:56:40;;;;;;;42.90;17.45;;;10.60;99.90;;;;;;6165525;23;20001;-91
2021/12/30 00:59:06;;;;;;;49.00;17.30;;;10.70;99.90;;;;;;6138458;23;20005;-91
2021/12/30 01:01:34;;;;;;;51.17;18.15;;;10.70;99.90;;;;;;6162797;23;20023;-93
2021/12/30 01:04:03;;;;;;;44.13;17.23;;;10.70;99.90;;;;;;6165674;23;20009;-91
2021/12/30 01:06:33;;;;;;;43.33;15.88;;;10.80;99.90;;;;;;6140793;23;20067;-92
2021/12/30 01:09:04;;;;;;;47.13;16.48;;;10.80;99.90;;;;;;6167341;23;20001;-92
2021/12/30 01:11:32;;;;;;;38.35;15.35;;;10.80;99.90;;;;;;6178813;22;20008;-90
2021/12/30 01:14:14;;;;;;;37.35;12.50;;;10.80;99.90;;;;;;6188503;23;19992;-91
2021/12/30 01:16:45;;;;;;;37.83;13.40;;;10.90;99.90;;;;;;6183266;23;20016;-91
2021/12/30 01:19:55;;;;;;;40.28;12.70;;;10.90;99.90;;;;;;6168737;23;20067;-92
2021/12/30 01:22:03;;;;;;;38.92;12.02;;;10.90;99.90;;;;;;6184523;23;20068;-91
2021/12/30 01:24:36;;;;;;;39.63;12.50;;;10.90;99.90;;;;;;6167008;23;20009;-90
2021/12/30 01:27:02;;;;;;;;;;;10.90;99.90;;;;;;6144818;23;20035;-91
2021/12/30 01:29:33;;;;;;;45.20;13.95;;;11.00;99.90;;;;;;6168910;23;20466;-91
2021/12/30 01:31:59;;;;;;;38.67;12.10;;;11.00;99.90;;;;;;6170664;23;20009;-93
2021/12/30 01:34:32;;;;;;;41.38;13.10;;;11.10;99.90;;;;;;6200521;23;20001;-92
2021/12/30 01:37:12;;;;;;;39.72;12.52;;;11.10;99.90;;;;;;6196481;23;20053;-93
2021/12/30 01:39:41;;;;;;;42.33;13.95;;;11.10;99.90;;;;;;6173374;23;20005;-92
2021/12/30 01:42:12;;;;;;;44.63;14.05;;;11.20;99.90;;;;;;6184309;23;20017;-90
2021/12/30 01:44:43;;;;;;;50.90;17.63;;;11.20;99.90;;;;;;6186908;23;20005;-92
2021/12/30 01:47:09;;;;;;;49.25;16.83;;;11.20;99.90;;;;;;6186668;23;20038;-92
2021/12/30 01:49:35;;;;;;;49.90;17.38;;;11.30;99.90;;;;;;6186438;22;20024;-92
2021/12/30 01:52:03;;;;;;;54.08;17.55;;;11.30;99.90;;;;;;6160964;23;20019;-92
2021/12/30 01:54:34;;;;;;;41.08;16.08;;;11.30;99.90;;;;;;6181879;23;20008;-91
2021/12/30 01:57:07;;;;;;;47.20;16.95;;;11.30;99.90;;;;;;6176683;23;20001;-92
2021/12/30 01:59:34;;;;;;;50.80;16.40;;;11.40;99.90;;;;;;6164474;23;20005;-92
2021/12/30 02:02:05;;;;;;;42.63;15.63;;;11.40;99.90;;;;;;6190087;23;20385;-92
2021/12/30 02:04:33;;;;;;;57.92;19.02;;;11.40;99.90;;;;;;6161583;23;20013;-92
2021/12/30 02:06:59;;;;;;;65.35;19.23;;;11.40;99.90;;;;;;6142098;23;20497;-91
2021/12/30 02:09:29;;;;;;;54.58;19.55;;;11.50;99.90;;;;;;6166771;23;20017;-91
2021/12/30 02:12:00;;;;;;;48.05;19.08;;;11.40;99.90;;;;;;6166686;23;20005;-90
2021/12/30 02:14:34;;;;;;;51.33;19.73;;;11.40;99.90;;;;;;6164785;23;20031;-92
2021/12/30 02:17:03;;;;;;;54.95;19.40;;;11.50;99.90;;;;;;6166328;23;20088;-89
2021/12/30 02:19:31;;;;;;;56.90;19.60;;;11.40;99.90;;;;;;6115323;23;20092;-90
2021/12/30 02:21:58;;;;;;;55.03;21.02;;;11.50;99.90;;;;;;6138220;23;20008;-90
2021/12/30 02:24:24;;;;;;;48.38;19.52;;;11.50;99.90;;;;;;6160070;23;20016;-90
2021/12/30 02:26:52;;;;;;;45.00;18.65;;;11.40;99.90;;;;;;6136391;23;20009;-90
2021/12/30 02:29:19;;;;;;;49.08;17.88;;;11.50;99.90;;;;;;6136851;23;20422;-90
2021/12/30 02:31:46;;;;;;;50.10;18.70;;;11.50;99.90;;;;;;6137350;23;20005;-91
2021/12/30 02:34:12;;;;;;;44.70;17.77;;;11.50;99.90;;;;;;6161853;23;20058;-90
2021/12/30 02:36:39;;;;;;;53.80;18.55;;;11.50;99.90;;;;;;6186877;23;20006;-90
2021/12/30 02:39:08;;;;;;;52.38;20.00;;;11.40;99.90;;;;;;6160648;23;20001;-91
2021/12/30 02:41:37;;;;;;;51.15;18.02;;;11.40;99.90;;;;;;6158925;23;20021;-90
2021/12/30 02:44:06;;;;;;;36.70;15.48;;;11.50;99.90;;;;;;6162115;23;20009;-91
2021/12/30 02:46:34;;;;;;;37.25;15.48;;;11.50;99.90;;;;;;6187589;23;20016;-91
2021/12/30 02:49:01;;;;;;;36.88;15.27;;;11.50;99.90;;;;;;6161834;23;20422;-90
2021/12/30 02:51:29;;;;;;;33.28;15.80;;;11.50;99.90;;;;;;6187615;23;19997;-89
2021/12/30 02:53:56;;;;;;;36.03;14.95;;;11.50;99.90;;;;;;6160586;23;20426;-91
2021/12/30 02:56:24;;;;;;;39.72;16.13;;;11.40;99.90;;;;;;6162041;23;19997;-90
2021/12/30 02:58:50;;;;;;;39.35;16.23;;;11.40;99.90;;;;;;6166838;23;19997;-90
2021/12/30 03:01:27;;;;;;;34.67;14.55;;;11.40;99.90;;;;;;6182382;22;19989;-90
2021/12/30 03:03:54;;;;;;;34.08;13.57;;;11.50;99.90;;;;;;6183917;23;20001;-90
2021/12/30 03:06:20;;;;;;;32.80;13.90;;;11.40;99.90;;;;;;6177252;23;20001;-90
2021/12/30 03:08:49;;;;;;;39.67;16.40;;;11.40;99.90;;;;;;6162479;23;20002;-90
2021/12/30 03:11:16;;;;;;;38.58;15.18;;;11.40;99.90;;;;;;6162577;23;20009;-88
2021/12/30 03:13:44;;;;;;;34.63;15.82;;;11.40;99.90;;;;;;6161657;23;20100;-89
2021/12/30 03:16:13;;;;;;;36.03;14.77;;;11.40;99.90;;;;;;6161385;23;20004;-89
2021/12/30 03:18:41;;;;;;;33.65;15.65;;;11.40;99.90;;;;;;6160986;23;20093;-89
2021/12/30 03:21:08;;;;;;;36.78;15.93;;;11.40;99.90;;;;;;6161121;23;20005;-89
2021/12/30 03:23:35;;;;;;;42.85;18.08;;;11.50;99.90;;;;;;6160401;23;20095;-90
2021/12/30 03:26:01;;;;;;;40.88;19.67;;;11.40;99.90;;;;;;6135894;23;20096;-90
2021/12/30 03:28:28;;;;;;;43.17;19.70;;;11.50;99.90;;;;;;6161009;23;19997;-89
2021/12/30 03:30:59;;;;;;;45.22;19.80;;;11.50;99.90;;;;;;6187365;23;20148;-91
2021/12/30 03:33:29;;;;;;;37.08;17.98;;;11.40;99.90;;;;;;6160725;23;20012;-90
2021/12/30 03:35:59;;;;;;;43.42;18.67;;;11.40;99.90;;;;;;6186284;23;20001;-90
2021/12/30 03:38:27;;;;;;;38.65;18.83;;;11.50;99.90;;;;;;6162768;23;20001;-90
2021/12/30 03:40:53;;;;;;;41.13;18.30;;;11.50;99.90;;;;;;6169060;23;20017;-89
2021/12/30 03:43:18;;;;;;;38.15;18.05;;;11.50;99.90;;;;;;6169394;23;20094;-90
2021/12/30 03:45:45;;;;;;;43.38;19.38;;;11.50;99.90;;;;;;6166018;23;20342;-90
2021/12/30 03:48:11;;;;;;;38.03;17.92;;;11.50;99.90;;;;;;6188877;23;20002;-90
2021/12/30 03:50:43;;;;;;;36.08;18.08;;;11.50;99.90;;;;;;6162679;23;20445;-89
2021/12/30 03:53:14;;;;;;;35.05;17.98;;;11.50;99.90;;;;;;6163068;23;20108;-90
2021/12/30 03:55:40;;;;;;;42.85;19.08;;;11.50;99.90;;;;;;6159945;23;20008;-90
2021/12/30 03:58:07;;;;;;;57.13;23.20;;;11.50;99.90;;;;;;6162589;23;20136;-91
2021/12/30 04:00:35;;;;;;;50.80;21.10;;;11.50;99.90;;;;;;6162519;23;20007;-90
2021/12/30 04:03:01;;;;;;;47.33;21.10;;;11.50;99.90;;;;;;6172239;23;20040;-91
2021/12/30 04:05:30;;;;;;;43.60;19.48;;;11.50;99.90;;;;;;6162633;23;20009;-90
2021/12/30 04:07:56;;;;;;;48.58;21.00;;;11.60;99.90;;;;;;6162584;23;20005;-90
2021/12/30 04:10:23;;;;;;;44.33;21.55;;;11.50;99.90;;;;;;6188558;23;20005;-89
2021/12/30 04:12:51;;;;;;;47.03;20.80;;;11.60;99.90;;;;;;6187973;23;20084;-90
2021/12/30 04:15:18;;;;;;;42.55;18.75;;;11.60;99.90;;;;;;6162266;23;20001;-90
2021/12/30 04:17:45;;;;;;;43.45;19.80;;;11.60;99.90;;;;;;6162610;23;20450;-89
2021/12/30 04:20:15;;;;;;;49.78;22.08;;;11.60;99.90;;;;;;6162929;23;20005;-89
2021/12/30 04:22:43;;;;;;;48.00;22.58;;;11.70;99.90;;;;;;6162127;23;20016;-90
2021/12/30 04:25:13;;;;;;;46.60;22.90;;;11.70;99.90;;;;;;6161382;23;20019;-90
2021/12/30 04:27:41;;;;;;;48.30;23.98;;;11.80;99.90;;;;;;6188094;23;20488;-90
2021/12/30 04:30:08;;;;;;;42.47;21.70;;;11.80;99.90;;;;;;6161225;23;20008;-89
2021/12/30 04:32:34;;;;;;;44.72;19.95;;;11.80;99.90;;;;;;6161647;23;20068;-89
2021/12/30 04:35:00;;;;;;;40.42;20.25;;;11.80;99.90;;;;;;6187897;23;20000;-90
2021/12/30 04:37:26;;;;;;;41.45;20.77;;;11.80;99.90;;;;;;6163348;23;20016;-91
2021/12/30 04:39:54;;;;;;;49.40;22.98;;;11.90;99.90;;;;;;6164115;23;20009;-91
2021/12/30 04:42:20;;;;;;;38.55;19.48;;;11.90;99.90;;;;;;6163259;23;20044;-89
2021/12/30 04:44:48;;;;;;;35.40;19.67;;;12.00;99.90;;;;;;6187472;23;20303;-91
2021/12/30 04:47:14;;;;;;;32.97;17.25;;;11.90;99.90;;;;;;6170269;23;20001;-91
2021/12/30 04:49:40;;;;;;;39.63;19.83;;;11.90;99.90;;;;;;6184611;22;19982;-91
2021/12/30 04:52:06;;;;;;;34.45;18.65;;;11.90;99.90;;;;;;6164286;23;20015;-90
2021/12/30 04:54:32;;;;;;;38.63;19.40;;;12.00;99.90;;;;;;6184803;23;20434;-90
2021/12/30 04:57:01;;;;;;;34.22;17.85;;;12.00;99.90;;;;;;6167686;23;20001;-91
2021/12/30 04:59:28;;;;;;;34.80;18.13;;;12.00;99.90;;;;;;6162465;23;20075;-90
2021/12/30 05:01:54;;;;;;;34.38;17.35;;;12.00;99.90;;;;;;6162337;23;20098;-91
2021/12/30 05:04:19;;;;;;;31.05;17.30;;;12.00;99.90;;;;;;6188494;23;20365;-91
2021/12/30 05:06:46;;;;;;;28.27;16.25;;;12.00;99.90;;;;;;6162027;23;20095;-91
2021/12/30 05:09:12;;;;;;;28.75;16.17;;;12.00;99.90;;;;;;6187910;23;20078;-93
2021/12/30 05:11:41;;;;;;;29.08;16.48;;;12.10;99.90;;;;;;6161929;23;20016;-91
2021/12/30 05:14:08;;;;;;;25.33;14.38;;;12.10;99.90;;;;;;6161887;23;20001;-90
2021/12/30 05:16:34;;;;;;;25.50;14.80;;;12.00;99.90;;;;;;6162528;23;20064;-91
2021/12/30 05:19:00;;;;;;;28.25;15.75;;;12.10;99.90;;;;;;6162611;23;19997;-91
2021/12/30 05:21:25;;;;;;;24.25;13.20;;;12.10;99.90;;;;;;6188030;23;20005;-91
2021/12/30 05:23:53;;;;;;;22.92;12.15;;;12.10;99.90;;;;;;6162102;23;20015;-92
2021/12/30 05:26:19;;;;;;;22.00;12.30;;;12.10;99.90;;;;;;6113604;23;20056;-91
2021/12/30 05:28:45;;;;;;;22.33;12.10;;;12.10;99.90;;;;;;6137066;23;20017;-91
2021/12/30 05:31:12;;;;;;;21.25;11.05;;;12.10;99.90;;;;;;6188078;23;19997;-92
2021/12/30 05:33:43;;;;;;;21.40;11.38;;;12.10;99.90;;;;;;6162303;23;20399;-92
2021/12/30 05:36:10;;;;;;;18.15;9.80;;;12.20;99.90;;;;;;6189257;23;20473;-93
2021/12/30 05:38:36;;;;;;;18.85;10.45;;;12.20;99.90;;;;;;6160371;23;20001;-93
2021/12/30 05:41:03;;;;;;;17.05;10.35;;;12.10;99.90;;;;;;6156539;23;20021;-93
2021/12/30 05:43:31;;;;;;;17.67;9.65;;;12.10;99.90;;;;;;6160145;23;20005;-93
2021/12/30 05:46:00;;;;;;;19.85;10.73;;;12.20;99.90;;;;;;6164058;23;20388;-92
2021/12/30 05:48:35;;;;;;;20.15;10.73;;;12.20;99.90;;;;;;6173882;23;20001;-93
2021/12/30 05:51:02;;;;;;;16.80;9.52;;;12.20;99.90;;;;;;6142168;23;20246;-91
2021/12/30 05:53:32;;;;;;;16.40;9.18;;;12.20;99.90;;;;;;6161300;23;20008;-91
2021/12/30 05:56:01;;;;;;;20.63;11.07;;;12.20;99.90;;;;;;6166185;23;20138;-90
2021/12/30 05:58:27;;;;;;;16.48;9.77;;;12.20;99.90;;;;;;6189328;23;19997;-89
2021/12/30 06:00:53;;;;;;;17.63;10.98;;;12.30;99.90;;;;;;6161892;23;20012;-90
2021/12/30 06:03:24;;;;;;;20.67;13.45;;;12.30;99.90;;;;;;6185620;23;20044;-91
2021/12/30 06:05:51;;;;;;;23.98;16.13;;;12.30;99.90;;;;;;6185875;23;20023;-90
2021/12/30 06:08:19;;;;;;;22.05;14.90;;;12.30;99.90;;;;;;6158323;23;20009;-90
2021/12/30 06:10:47;;;;;;;26.27;16.95;;;12.40;99.90;;;;;;6159368;23;20012;-90
2021/12/30 06:13:13;;;;;;;28.98;19.48;;;12.40;99.90;;;;;;6136298;23;20446;-91
2021/12/30 06:15:41;;;;;;;26.10;19.95;;;12.40;99.90;;;;;;6162539;23;20437;-91
2021/12/30 06:18:10;;;;;;;33.17;25.27;;;12.40;99.90;;;;;;6161813;23;20010;-91
2021/12/30 06:20:41;;;;;;;36.97;26.73;;;12.40;99.90;;;;;;6182910;23;20028;-91
2021/12/30 06:23:11;;;;;;;37.70;27.85;;;12.40;99.90;;;;;;6188473;23;20037;-90
2021/12/30 06:25:48;;;;;;;39.80;26.95;;;12.40;99.90;;;;;;6188770;23;20001;-90
2021/12/30 06:28:20;;;;;;;36.28;26.67;;;12.40;99.90;;;;;;6184753;23;20012;-91
2021/12/30 06:31:09;;;;;;;39.42;25.10;;;12.40;99.90;;;;;;6134094;23;20013;-91
2021/12/30 06:33:37;;;;;;;38.50;26.98;;;12.40;99.90;;;;;;6185796;23;20395;-91
2021/12/30 06:36:04;;;;;;;41.33;27.15;;;12.50;99.90;;;;;;6156980;23;20497;-91
2021/12/30 06:38:33;;;;;;;45.72;28.08;;;12.50;99.90;;;;;;6137223;23;20044;-91
2021/12/30 06:41:01;;;;;;;41.75;26.65;;;12.50;99.90;;;;;;6153163;23;20025;-91
2021/12/30 06:43:33;;;;;;;39.10;26.38;;;12.60;99.90;;;;;;6186757;22;19993;-93
2021/12/30 06:46:08;;;;;;;33.00;24.20;;;12.60;99.90;;;;;;6186480;23;20009;-92
2021/12/30 06:48:37;;;;;;;32.20;22.75;;;12.60;99.90;;;;;;6173594;23;20041;-92
2021/12/30 06:51:05;;;;;;;29.75;22.15;;;12.60;99.90;;;;;;6142917;23;20087;-92
2021/12/30 06:53:41;;;;;;;23.65;17.30;;;12.60;99.90;;;;;;6164189;23;20421;-94
2021/12/30 06:56:07;;;;;;;19.15;14.68;;;12.60;99.90;;;;;;6174379;23;20012;-93
2021/12/30 06:58:37;;;;;;;20.25;14.05;;;12.60;99.90;;;;;;6167825;23;20303;-93
2021/12/30 07:01:06;;;;;;;19.73;13.85;;;12.60;99.90;;;;;;6167997;23;20012;-94
2021/12/30 07:03:33;;;;;;;22.35;15.57;;;12.60;99.90;;;;;;6164042;23;20074;-94
2021/12/30 07:06:01;;;;;;;16.73;13.35;;;12.60;99.90;;;;;;6189992;23;20016;-92
2021/12/30 07:08:33;;;;;;;18.65;13.35;;;12.60;99.90;;;;;;6197289;23;19997;-91
2021/12/30 07:11:00;;;;;;;14.43;11.75;;;12.60;99.90;;;;;;6147926;23;20013;-92
2021/12/30 07:13:30;;;;;;;17.40;12.27;;;12.60;99.90;;;;;;6180614;23;20005;-93
2021/12/30 07:15:57;;;;;;;16.17;11.98;;;12.60;99.90;;;;;;6160353;23;20096;-93
2021/12/30 07:18:25;;;;;;;18.55;11.90;;;12.60;99.90;;;;;;6185993;23;19993;-92
2021/12/30 07:20:53;;;;;;;17.65;13.52;;;12.60;99.90;;;;;;6186243;23;19990;-93
2021/12/30 07:23:28;;;;;;;17.77;13.77;;;12.60;99.90;;;;;;6186447;23;20017;-94
2021/12/30 07:25:57;;;;;;;20.35;14.70;;;12.60;99.90;;;;;;6177425;23;20011;-92
2021/12/30 07:28:23;;;;;;;20.00;14.75;;;12.60;99.90;;;;;;6140799;23;20020;-94
2021/12/30 07:30:59;;;;;;;23.85;16.30;;;12.60;99.90;;;;;;6190735;23;20046;-93
2021/12/30 07:33:31;;;;;;;23.23;16.83;;;12.60;99.90;;;;;;6190779;23;20001;-93
2021/12/30 07:36:11;;;;;;;23.17;17.77;;;12.60;99.90;;;;;;6164453;23;20469;-95
2021/12/30 07:38:43;;;;;;;23.75;18.02;;;12.60;99.90;;;;;;6165011;23;20001;-95
2021/12/30 07:41:12;;;;;;;26.23;18.73;;;12.60;99.90;;;;;;6189794;23;20092;-94
2021/12/30 07:43:47;;;;;;;22.98;17.23;;;12.70;99.90;;;;;;6190434;23;20414;-95
2021/12/30 07:46:36;;;;;;;25.95;18.55;;;12.70;99.90;;;;;;6190601;23;20064;-94
2021/12/30 07:49:06;;;;;;;28.35;20.40;;;12.70;99.90;;;;;;6164511;23;20055;-95
2021/12/30 07:51:35;;;;;;;28.05;21.08;;;12.70;99.90;;;;;;6165249;23;20116;-94
2021/12/30 07:54:01;;;;;;;30.52;23.23;;;12.70;99.90;;;;;;6166526;23;20001;-94
2021/12/30 07:56:28;;;;;;;32.25;23.30;;;12.70;99.90;;;;;;6165739;23;20414;-95
2021/12/30 07:58:58;;;;;;;32.58;21.77;;;12.70;99.90;;;;;;6166267;23;20020;-94
2021/12/30 08:01:31;;;;;;;31.63;19.92;;;12.70;99.90;;;;;;6168136;23;20020;-93
2021/12/30 08:03:57;;;;;;;37.53;21.58;;;12.80;99.90;;;;;;6164549;23;20009;-93
2021/12/30 08:06:28;;;;;;;31.70;19.60;;;12.80;99.90;;;;;;6170301;23;20027;-92
2021/12/30 08:08:55;;;;;;;29.33;17.58;;;12.90;99.90;;;;;;6177034;23;20017;-93
2021/12/30 08:11:24;;;;;;;27.20;16.25;;;13.00;99.90;;;;;;6187941;23;20004;-94
2021/12/30 08:13:52;;;;;;;26.00;15.82;;;13.00;99.90;;;;;;6160844;23;20711;-94
2021/12/30 08:16:19;;;;;;;21.40;13.40;;;13.10;99.90;;;;;;6162583;23;20000;-95
2021/12/30 08:18:58;;;;;;;20.05;13.05;;;13.10;99.90;;;;;;6163272;23;20063;-95
2021/12/30 08:21:29;;;;;;;19.63;12.65;;;13.10;99.90;;;;;;6160848;23;20005;-94
2021/12/30 08:24:00;;;;;;;19.25;13.40;;;13.20;99.90;;;;;;6162359;23;20048;-95
2021/12/30 08:26:41;;;;;;;20.00;12.23;;;13.20;99.90;;;;;;6188590;23;20092;-94
2021/12/30 08:29:09;;;;;;;18.58;12.32;;;13.20;99.90;;;;;;6169873;23;20040;-93
2021/12/30 08:31:40;;;;;;;16.60;11.75;;;13.30;99.90;;;;;;6181607;23;20021;-96
2021/12/30 08:34:11;;;;;;;14.82;11.25;;;13.30;99.90;;;;;;6213295;22;20009;-94
2021/12/30 08:36:50;;;;;;;14.93;11.48;;;13.30;99.90;;;;;;6188963;23;20008;-94
2021/12/30 08:39:22;;;;;;;15.75;11.02;;;13.30;99.90;;;;;;6153648;23;20005;-94
2021/12/30 08:42:03;;;;;;;13.32;10.43;;;13.40;99.90;;;;;;6163836;23;20021;-94
2021/12/30 08:44:50;;;;;;;15.82;10.68;;;13.40;99.90;;;;;;6164122;23;20334;-96
2021/12/30 08:47:24;;;;;;;13.15;9.40;;;13.40;99.90;;;;;;6163293;23;20366;-94
2021/12/30 08:49:54;;;;;;;12.13;9.55;;;13.40;99.90;;;;;;6163202;23;20013;-93
2021/12/30 08:52:30;;;;;;;12.50;9.35;;;13.40;99.90;;;;;;6163267;23;20040;-94
2021/12/30 08:54:59;;;;;;;13.65;9.85;;;13.40;99.90;;;;;;6163077;23;20009;-95
2021/12/30 08:57:32;;;;;;;14.70;11.15;;;13.40;99.90;;;;;;6162027;23;20318;-94
2021/12/30 09:00:19;;;;;;;14.05;10.43;;;13.40;99.90;;;;;;6162578;23;20013;-93
2021/12/30 09:02:53;;;;;;;13.13;10.80;;;13.40;99.90;;;;;;6162717;23;20121;-94
2021/12/30 09:05:23;;;;;;;15.50;10.02;;;13.50;99.90;;;;;;6155464;23;20426;-94
2021/12/30 09:08:06;;;;;;;17.73;10.05;;;13.50;99.90;;;;;;6187411;23;20009;-94
2021/12/30 09:10:40;;;;;;;18.48;10.30;;;13.50;99.90;;;;;;6163471;23;20005;-93
2021/12/30 09:13:08;;;;;;;14.25;10.10;;;13.40;99.90;;;;;;6189501;23;20027;-95
2021/12/30 09:16:01;;;;;;;16.60;9.57;;;13.50;99.90;;;;;;6192845;23;20012;-94
2021/12/30 09:18:33;;;;;;;16.50;9.98;;;13.50;99.90;;;;;;6167033;23;20001;-95
2021/12/30 09:21:02;;;;;;;15.33;9.57;;;13.50;99.90;;;;;;6141043;23;20060;-95
2021/12/30 09:23:35;;;;;;;13.77;8.93;;;13.60;99.90;;;;;;6165850;23;20009;-96
2021/12/30 09:26:07;;;;;;;;;;;13.50;99.90;;;;;;6191553;23;20001;-95
2021/12/30 09:29:10;;;;;;;13.95;8.20;;;13.50;99.90;;;;;;6164350;23;19995;-96
2021/12/30 09:31:46;;;;;;;15.90;8.40;;;13.50;99.90;;;;;;6191167;23;20373;-94
2021/12/30 09:34:24;;;;;;;15.10;7.50;;;13.50;99.90;;;;;;6163071;23;20005;-94
2021/12/30 09:37:10;;;;;;;;;;;;;;;;;;;;;
2021/12/30 09:40:01;;;;;;;13.48;6.10;;;13.60;99.90;;;;;;6191902;23;20031;-94
2021/12/30 09:42:43;;;;;;;12.93;6.78;;;13.60;99.90;;;;;;6167159;23;20013;-95
2021/12/30 09:45:54;;;;;;;;;;;;;;;;;;;;;
2021/12/30 09:48:46;;;;;;;11.50;5.78;;;13.60;99.90;;;;;;6096082;23;20050;-96
2021/12/30 09:51:21;;;;;;;15.77;6.25;;;13.60;99.90;;;;;;6079278;23;20006;-96
2021/12/30 09:54:08;;;;;;;13.00;5.88;;;13.70;99.90;;;;;;6100564;23;20036;-96
2021/12/30 09:57:12;;;;;;;;;;;;;;;;;;;;;
2021/12/30 09:59:43;;;;;;;18.17;5.38;;;13.80;99.90;;;;;;6101197;23;20061;-96
2021/12/30 10:03:05;;;;;;;11.68;4.38;;;13.80;99.90;;;;;;6077419;23;20002;-95
2021/12/30 10:05:56;;;;;;;;;;;;;;;;;;;;;
2021/12/30 10:08:26;;;;;;;13.80;5.10;;;13.90;99.90;;;;;;6000519;23;20520;-95
2021/12/30 10:11:03;;;;;;;13.32;4.45;;;13.90;99.90;;;;;;6009656;23;20820;-94
2021/12/30 10:13:48;;;;;;;13.00;4.43;;;13.90;99.90;;;;;;6010455;23;20007;-96
2021/12/30 10:16:20;;;;;;;14.90;3.97;;;14.00;99.90;;;;;;6032633;23;20006;-96
2021/12/30 10:18:58;;;;;;;11.27;3.60;;;14.10;99.90;;;;;;6098296;23;20006;-96
2021/12/30 10:21:50;;;;;;;11.68;4.13;;;14.20;99.90;;;;;;6088584;23;20006;-95
2021/12/30 10:24:41;;;;;;;;;;;;;;;;;;;;;
2021/12/30 10:27:40;;;;;;;16.25;4.10;;;14.10;99.90;;;;;;6105346;23;20025;-96
2021/12/30 10:30:38;;;;;;;13.80;4.22;;;14.10;99.90;;;;;;6101498;23;20384;-96
2021/12/30 10:33:12;;;;;;;14.13;5.15;;;14.10;99.90;;;;;;6075981;23;20002;-96
2021/12/30 10:36:05;;;;;;;15.32;4.70;;;14.10;99.90;;;;;;6075205;23;20147;-96
2021/12/30 10:38:42;;;;;;;11.10;4.47;;;14.00;99.90;;;;;;6098268;23;20016;-95
2021/12/30 10:41:31;;;;;;;12.20;4.00;;;14.00;99.90;;;;;;6095418;23;20131;-96
2021/12/30 10:44:03;;;;;;;13.88;4.97;;;14.00;99.90;;;;;;6074577;23;20392;-95
2021/12/30 10:46:37;;;;;;;13.73;6.45;;;14.00;99.90;;;;;;6100946;23;20022;-94
2021/12/30 10:49:34;;;;;;;16.60;6.15;;;14.00;99.90;;;;;;6077941;23;20006;-95
2021/12/30 10:52:17;;;;;;;11.52;5.03;;;14.00;99.90;;;;;;6059415;23;20022;-94
2021/12/30 10:54:49;;;;;;;;;;;14.10;99.90;;;;;;6073065;23;20057;-94
2021/12/30 10:57:26;;;;;;;16.17;5.55;;;14.00;99.90;;;;;;6159085;23;19982;-94
2021/12/30 11:00:15;;;;;;;17.25;6.30;;;14.10;99.90;;;;;;6160050;23;20001;-94
2021/12/30 11:02:44;;;;;;;14.73;5.85;;;14.10;99.90;;;;;;6166964;23;20040;-94
2021/12/30 11:05:18;;;;;;;16.27;6.63;;;14.10;99.90;;;;;;6190434;23;20424;-96
2021/12/30 11:07:51;;;;;;;10.23;6.10;;;14.10;99.90;;;;;;6161850;23;20009;-93
2021/12/30 11:10:38;;;;;;;13.77;5.30;;;14.10;99.90;;;;;;6186008;23;20016;-94
2021/12/30 11:13:17;;;;;;;14.90;5.68;;;14.10;99.90;;;;;;6159987;23;20342;-94
2021/12/30 11:18:52;;;;;;;14.23;5.60;;;14.10;99.90;;;;;;6161399;23;20009;-95
2021/12/30 11:21:42;;;;;;;20.38;6.18;;;14.10;99.90;;;;;;6159431;23;20040;-94
2021/12/30 11:24:13;;;;;;;12.73;5.15;;;14.10;99.90;;;;;;6166245;23;20013;-94
2021/12/30 11:27:08;;;;;;;;;;;;;;;;;;;;;
2021/12/30 11:29:42;;;;;;;14.05;5.00;;;14.10;99.90;;;;;;6188294;23;20477;-91
2021/12/30 11:32:09;;;;;;;12.20;5.10;;;14.20;99.90;;;;;;6164105;23;20005;-92
2021/12/30 11:34:39;;;;;;;14.15;4.80;;;14.10;99.90;;;;;;6160011;23;20009;-93
2021/12/30 11:37:09;;;;;;;13.45;5.03;;;14.10;99.90;;;;;;6191280;23;20032;-93
2021/12/30 11:39:42;;;;;;;13.55;4.85;;;14.10;99.90;;;;;;6136742;23;20103;-93
2021/12/30 11:42:36;;;;;;;16.33;5.03;;;14.10;99.90;;;;;;6157652;23;20025;-94
2021/12/30 11:45:25;;;;;;;15.15;5.15;;;14.20;99.90;;;;;;6160387;23;20063;-95
2021/12/30 11:47:59;;;;;;;12.63;4.38;;;14.20;99.90;;;;;;6161325;23;20025;-94
2021/12/30 11:50:48;;;;;;;12.48;4.50;;;14.20;99.90;;;;;;6163481;23;20009;-95
2021/12/30 11:53:46;;;;;;;14.68;4.07;;;14.20;99.90;;;;;;6165459;23;20009;-95
2021/12/30 11:56:24;;;;;;;13.35;3.92;;;14.10;99.90;;;;;;6158518;23;20005;-92
2021/12/30 11:59:39;;;;;;;10.48;4.00;;;14.10;99.90;;;;;;6143491;23;20016;-92
2021/12/30 12:03:13;;;;;;;;;;;;;;;;;;;;;
2021/12/30 12:05:45;;;;;;;17.13;4.55;;;14.20;99.90;;;;;;6205188;22;20012;-94
2021/12/30 12:08:14;;;;;;;13.30;4.20;;;14.20;99.90;;;;;;6185505;22;20043;-93
2021/12/30 12:11:21;;;;;;;10.93;4.30;;;14.20;99.90;;;;;;6162596;22;19993;-93
2021/12/30 12:14:38;;;;;;;;;;;;;;;;;;;;;
2021/12/30 12:17:47;;;;;;;11.18;4.22;;;14.20;99.90;;;;;;6198366;22;19997;-93
2021/12/30 12:20:30;;;;;;;10.95;4.15;;;14.20;99.90;;;;;;6176920;23;20009;-94
2021/12/30 12:23:23;;;;;;;12.65;4.55;;;14.20;99.90;;;;;;6140897;23;20164;-91
2021/12/30 12:30:10;;;;;;;13.70;4.82;;;14.20;99.90;;;;;;6099022;23;20014;-94
2021/12/30 12:32:45;;;;;;;16.50;4.25;;;14.20;99.90;;;;;;6160885;23;20025;-92
2021/12/30 12:35:15;;;;;;;11.55;3.60;;;14.20;99.90;;;;;;6139711;23;20350;-93
2021/12/30 12:38:05;;;;;;;9.77;4.00;;;14.20;99.90;;;;;;6163487;23;20333;-92
2021/12/30 12:40:43;;;;;;;11.15;3.83;;;14.20;99.90;;;;;;6187914;23;20008;-93
2021/12/30 12:43:38;;;;;;;;;;;;;;;;;;;;;
2021/12/30 12:46:44;;;;;;;13.38;4.50;;;14.30;99.90;;;;;;6140701;23;20080;-94
2021/12/30 12:49:38;;;;;;;12.13;3.63;;;14.30;99.90;;;;;;6187482;23;20012;-92
2021/12/30 12:52:38;;;;;;;10.10;3.75;;;14.20;99.90;;;;;;6187042;23;20056;-92
2021/12/30 12:55:09;;;;;;;9.65;3.30;;;14.20;99.90;;;;;;6142182;23;20060;-90
2021/12/30 12:57:41;;;;;;;13.45;4.13;;;14.30;99.90;;;;;;6185298;23;20088;-92
2021/12/30 13:00:33;;;;;;;13.13;4.53;;;14.30;99.90;;;;;;6186458;23;20005;-93
2021/12/30 13:03:20;;;;;;;11.77;4.63;;;14.30;99.90;;;;;;6159860;23;20071;-93
2021/12/30 13:06:44;;;;;;;11.32;4.25;;;14.40;99.90;;;;;;6140395;23;20484;-92
2021/12/30 13:09:41;;;;;;;8.25;4.10;;;14.40;99.90;;;;;;6127642;23;20022;-94
2021/12/30 13:12:22;;;;;;;;;;;;;;;;;;;;;
2021/12/30 13:14:53;;;;;;;9.63;4.78;;;14.50;99.90;;;;;;6181050;23;20089;-91
2021/12/30 13:17:22;;;;;;;10.07;4.40;;;14.50;99.90;;;;;;6140793;23;20096;-93
2021/12/30 13:20:00;;;;;;;11.25;4.38;;;14.50;99.90;;;;;;6165200;23;20051;-91
2021/12/30 13:22:47;;;;;;;12.13;3.70;;;14.50;99.90;;;;;;6186471;23;20702;-92
2021/12/30 13:25:34;;;;;;;9.00;3.35;;;14.50;99.90;;;;;;6162120;23;20021;-92